<?xml version="1.0" encoding="UTF-8" standalone="no" ?>
<gpx xmlns="http://www.topografix.com/GPX/1/1" xmlns:xsi="http://www.w3.org/2001/XMLSchema-instance" xsi:schemaLocation="http://www.topografix.com/GPX/1/1 http://www.topografix.com/GPX/1/1/gpx.xsd" version="1.1" creator="VisuGPX - https://www.visugpx.com">
  <metadata>
    <name>Argentina</name>
    <desc><![CDATA[Downloaded from eMap Software Version 2.75]]></desc>
  </metadata>
  <trk>
    <name><![CDATA[ACTIVE LOG]]></name>
    <extensions>
      <line xmlns="http://www.topografix.com/GPX/gpx_style/0/2">
        <color>ff0000</color>
        <opacity>0.78</opacity>
        <width>0.6000</width>
      </line>
    </extensions>
    <trkseg>
      <trkpt lat="-27.07731" lon="-65.66322">
        <ele>780.247314</ele>
        <time>2005-12-11T17:34:39Z</time>
      </trkpt>
      <trkpt lat="-27.07776" lon="-65.66363">
        <ele>774.959961</ele>
        <time>2005-12-11T17:34:43Z</time>
      </trkpt>
      <trkpt lat="-27.07808" lon="-65.664">
        <ele>773.037354</ele>
        <time>2005-12-11T17:34:46Z</time>
      </trkpt>
      <trkpt lat="-27.07836" lon="-65.66458">
        <ele>772.556641</ele>
        <time>2005-12-11T17:34:50Z</time>
      </trkpt>
      <trkpt lat="-27.07881" lon="-65.66528">
        <ele>772.075928</ele>
        <time>2005-12-11T17:34:56Z</time>
      </trkpt>
      <trkpt lat="-27.07988" lon="-65.66588">
        <ele>768.230713</ele>
        <time>2005-12-11T17:35:05Z</time>
      </trkpt>
      <trkpt lat="-27.08012" lon="-65.66597">
        <ele>766.788818</ele>
        <time>2005-12-11T17:35:07Z</time>
      </trkpt>
      <trkpt lat="-27.08055" lon="-65.66569">
        <ele>765.346924</ele>
        <time>2005-12-11T17:35:12Z</time>
      </trkpt>
      <trkpt lat="-27.08102" lon="-65.665">
        <ele>762.943359</ele>
        <time>2005-12-11T17:35:18Z</time>
      </trkpt>
      <trkpt lat="-27.08162" lon="-65.66462">
        <ele>756.214111</ele>
        <time>2005-12-11T17:35:23Z</time>
      </trkpt>
      <trkpt lat="-27.08246" lon="-65.6649">
        <ele>752.849609</ele>
        <time>2005-12-11T17:35:30Z</time>
      </trkpt>
      <trkpt lat="-27.08375" lon="-65.66578">
        <ele>748.523682</ele>
        <time>2005-12-11T17:35:42Z</time>
      </trkpt>
      <trkpt lat="-27.08452" lon="-65.66541">
        <ele>746.120361</ele>
        <time>2005-12-11T17:35:49Z</time>
      </trkpt>
      <trkpt lat="-27.08512" lon="-65.66535">
        <ele>744.197754</ele>
        <time>2005-12-11T17:35:55Z</time>
      </trkpt>
      <trkpt lat="-27.08576" lon="-65.66518">
        <ele>741.794434</ele>
        <time>2005-12-11T17:36:00Z</time>
      </trkpt>
      <trkpt lat="-27.08608" lon="-65.66492">
        <ele>741.313721</ele>
        <time>2005-12-11T17:36:03Z</time>
      </trkpt>
      <trkpt lat="-27.08654" lon="-65.6637">
        <ele>743.236328</ele>
        <time>2005-12-11T17:36:11Z</time>
      </trkpt>
      <trkpt lat="-27.08679" lon="-65.66267">
        <ele>739.391113</ele>
        <time>2005-12-11T17:36:17Z</time>
      </trkpt>
      <trkpt lat="-27.08763" lon="-65.66129">
        <ele>734.584717</ele>
        <time>2005-12-11T17:36:26Z</time>
      </trkpt>
      <trkpt lat="-27.08834" lon="-65.66106">
        <ele>724.490723</ele>
        <time>2005-12-11T17:36:32Z</time>
      </trkpt>
      <trkpt lat="-27.08945" lon="-65.66121">
        <ele>715.358154</ele>
        <time>2005-12-11T17:36:39Z</time>
      </trkpt>
      <trkpt lat="-27.09025" lon="-65.66093">
        <ele>712.954834</ele>
        <time>2005-12-11T17:36:44Z</time>
      </trkpt>
      <trkpt lat="-27.09053" lon="-65.66076">
        <ele>711.993652</ele>
        <time>2005-12-11T17:36:46Z</time>
      </trkpt>
      <trkpt lat="-27.091" lon="-65.66013">
        <ele>710.070801</ele>
        <time>2005-12-11T17:36:51Z</time>
      </trkpt>
      <trkpt lat="-27.0916" lon="-65.65962">
        <ele>706.225586</ele>
        <time>2005-12-11T17:36:57Z</time>
      </trkpt>
      <trkpt lat="-27.09199" lon="-65.6597">
        <ele>703.341797</ele>
        <time>2005-12-11T17:37:00Z</time>
      </trkpt>
      <trkpt lat="-27.09289" lon="-65.65964">
        <ele>693.247803</ele>
        <time>2005-12-11T17:37:07Z</time>
      </trkpt>
      <trkpt lat="-27.09327" lon="-65.65915">
        <ele>692.767334</ele>
        <time>2005-12-11T17:37:11Z</time>
      </trkpt>
      <trkpt lat="-27.09413" lon="-65.65707">
        <ele>684.115479</ele>
        <time>2005-12-11T17:37:22Z</time>
      </trkpt>
      <trkpt lat="-27.09548" lon="-65.6532">
        <ele>678.828125</ele>
        <time>2005-12-11T17:37:40Z</time>
      </trkpt>
      <trkpt lat="-27.09634" lon="-65.65123">
        <ele>669.695801</ele>
        <time>2005-12-11T17:37:50Z</time>
      </trkpt>
      <trkpt lat="-27.0972" lon="-65.6496">
        <ele>667.292236</ele>
        <time>2005-12-11T17:37:59Z</time>
      </trkpt>
      <trkpt lat="-27.09741" lon="-65.64902">
        <ele>665.850342</ele>
        <time>2005-12-11T17:38:02Z</time>
      </trkpt>
      <trkpt lat="-27.09759" lon="-65.64724">
        <ele>658.640381</ele>
        <time>2005-12-11T17:38:11Z</time>
      </trkpt>
      <trkpt lat="-27.09763" lon="-65.64683">
        <ele>655.756592</ele>
        <time>2005-12-11T17:38:17Z</time>
      </trkpt>
      <trkpt lat="-27.09761" lon="-65.64672">
        <ele>654.314697</ele>
        <time>2005-12-11T17:38:28Z</time>
      </trkpt>
      <trkpt lat="-27.09756" lon="-65.64672">
        <ele>648.546387</ele>
        <time>2005-12-11T17:38:47Z</time>
      </trkpt>
      <trkpt lat="-27.09752" lon="-65.64664">
        <ele>641.33667</ele>
        <time>2005-12-11T17:43:36Z</time>
      </trkpt>
      <trkpt lat="-27.09759" lon="-65.64544">
        <ele>641.33667</ele>
        <time>2005-12-11T17:43:45Z</time>
      </trkpt>
      <trkpt lat="-27.09774" lon="-65.64353">
        <ele>641.33667</ele>
        <time>2005-12-11T17:43:54Z</time>
      </trkpt>
    </trkseg>
  </trk>
</gpx>